الصفحة الرئيسية
METAR-TAF:

METAR-TAF

مطار :

Chugiak, ألاسكا, الولايات المتحدة

دائرة عرض: 61-25N, خط طول: 149-31W, ارتفاع: 29 متر

مراقبة الطقس الحالي

تاريخ ووقت الإصدار 19 دقيقة قبل الساعة 14:56UTC
رياح هادئة
درجة الحرارة 1°درجة مئوية
الرطوبة 86%
ضغط 1015 hPa
الرؤية: 16.1 كم
ملبد بالغيوم على ارتفاع 8500 قدم

METAR: PABV 231456Z AUTO 00000KT 10SM OVC085 01/M01 A2998 RMK AO2 SLP158 T00061011 57010 FZRANO

زمن: 07:15 (15:15 UTC)


TAF: مفقودة

أرصاد الطقس والتوقعات من أكثر من 4000 مطار (تقارير الطقس للمطار METAR والتنبؤ بالطقس بالمطارTAF).

المحطات المتاحة هي النقط الصفراء والحمراء على الخريطة.

حرك المؤشر فوق النقطة لمعرفة اسم المحطة.

ثم انقر لمعرفة أرصاد وتوقعات الطقس.

لتغيير الخارطة: اضغط على الأزرار الخضراء مع رمز الصليب الأسود للتكبير. على الزر الأخضر مع شرطة للتصغير، أو على الأسهم الخضراء للخرائط المجاورة.


METAR-TAF: